AFR18SQ LFBZ-LFPG
Flight info
| Callsign | AFR18SQ |
|---|---|
| Flight time | 0h 59m |
| Altitude | 34000 |
| Route | VAVIX DCT POI/N0436F300 DCT PEPAX UT182 KEPER |
| Aircraft | A320/M-SDE3FGHIRWY/LB1 |
Departure
| Time | 2026-05-08 10:18 |
|---|---|
| Airport | Biarritz Pays Basque airport (LFBZ) |
Arrival
| Time | 2026-05-08 11:18 |
|---|---|
| Airport | Charles de Gaulle International Airport (LFPG) |
| Time | Latitude | Longitude | Altitude | Speed | Heading |
|---|---|---|---|---|---|
| 2026-05-08 10:13 | 43.47073 | -1.53135 | 245 ft | 2 kts | 20° |
| 2026-05-08 10:13 | 43.47056 | -1.53139 | 245 ft | 2 kts | 323° |
| 2026-05-08 10:14 | 43.47049 | -1.53130 | 245 ft | 0 kts | 281° |
| 2026-05-08 10:16 | 43.47046 | -1.53176 | 245 ft | 7 kts | 196° |
| 2026-05-08 10:16 | 43.46996 | -1.53195 | 245 ft | 8 kts | 191° |
| 2026-05-08 10:17 | 43.46935 | -1.53184 | 245 ft | 10 kts | 160° |
| 2026-05-08 10:17 | 43.46861 | -1.53178 | 245 ft | 11 kts | 199° |
| 2026-05-08 10:17 | 43.46826 | -1.53097 | 247 ft | 22 kts | 92° |
| 2026-05-08 10:17 | 43.46834 | -1.52515 | 242 ft | 98 kts | 89° |
| 2026-05-08 10:18 | 43.46848 | -1.51267 | 247 ft | 158 kts | 92° |
| 2026-05-08 10:18 | 43.46876 | -1.49674 | 674 ft | 175 kts | 90° |
| 2026-05-08 10:18 | 43.46898 | -1.47956 | 1348 ft | 182 kts | 91° |
| 2026-05-08 10:18 | 43.46956 | -1.46185 | 2064 ft | 191 kts | 84° |
| 2026-05-08 10:19 | 43.47566 | -1.44436 | 2415 ft | 220 kts | 43° |
| 2026-05-08 10:19 | 43.49006 | -1.43475 | 2779 ft | 246 kts | 13° |
| 2026-05-08 10:19 | 43.50737 | -1.42846 | 3213 ft | 268 kts | 22° |
| 2026-05-08 10:20 | 43.54026 | -1.40168 | 4772 ft | 281 kts | 39° |
| 2026-05-08 10:20 | 43.55603 | -1.38549 | 5631 ft | 285 kts | 39° |
| 2026-05-08 10:20 | 43.57170 | -1.36917 | 6494 ft | 287 kts | 40° |
| 2026-05-08 10:20 | 43.58799 | -1.35243 | 7345 ft | 290 kts | 39° |
| 2026-05-08 10:21 | 43.60414 | -1.33617 | 8159 ft | 293 kts | 38° |
| 2026-05-08 10:21 | 43.62081 | -1.31969 | 9005 ft | 296 kts | 37° |
| 2026-05-08 10:21 | 43.63770 | -1.30319 | 9840 ft | 299 kts | 37° |
| 2026-05-08 10:21 | 43.65488 | -1.28654 | 10399 ft | 311 kts | 37° |
| 2026-05-08 10:22 | 43.67329 | -1.26862 | 10626 ft | 334 kts | 37° |
| 2026-05-08 10:22 | 43.69292 | -1.24950 | 10802 ft | 357 kts | 37° |
| 2026-05-08 10:22 | 43.71384 | -1.22914 | 10932 ft | 379 kts | 37° |
| 2026-05-08 10:22 | 43.73598 | -1.20765 | 11204 ft | 395 kts | 36° |
| 2026-05-08 10:23 | 43.75864 | -1.18573 | 11739 ft | 401 kts | 36° |
| 2026-05-08 10:23 | 43.78181 | -1.16375 | 12376 ft | 405 kts | 35° |
| 2026-05-08 10:23 | 43.80536 | -1.14181 | 12983 ft | 409 kts | 35° |
| 2026-05-08 10:23 | 43.82912 | -1.11979 | 13597 ft | 413 kts | 34° |
| 2026-05-08 10:24 | 43.85304 | -1.09759 | 14188 ft | 415 kts | 34° |
| 2026-05-08 10:24 | 43.87808 | -1.07739 | 14736 ft | 419 kts | 23° |
| 2026-05-08 10:24 | 43.90582 | -1.06451 | 15271 ft | 423 kts | 17° |
| 2026-05-08 10:24 | 43.93377 | -1.05274 | 15799 ft | 426 kts | 17° |
| 2026-05-08 10:25 | 43.96226 | -1.04098 | 16318 ft | 430 kts | 17° |
| 2026-05-08 10:25 | 43.99109 | -1.02918 | 16815 ft | 433 kts | 17° |
| 2026-05-08 10:25 | 44.02012 | -1.01728 | 17303 ft | 436 kts | 17° |
| 2026-05-08 10:25 | 44.04912 | -1.00426 | 17795 ft | 439 kts | 24° |
| 2026-05-08 10:26 | 44.07547 | -0.98291 | 18258 ft | 440 kts | 38° |
| 2026-05-08 10:26 | 44.10063 | -0.95851 | 18645 ft | 444 kts | 28° |
| 2026-05-08 10:26 | 44.12933 | -0.94205 | 19041 ft | 448 kts | 19° |
| 2026-05-08 10:26 | 44.15922 | -0.92964 | 19421 ft | 450 kts | 15° |
| 2026-05-08 10:27 | 44.18942 | -0.91769 | 19802 ft | 452 kts | 17° |
| 2026-05-08 10:27 | 44.21955 | -0.90455 | 20168 ft | 455 kts | 18° |
| 2026-05-08 10:27 | 44.24962 | -0.89062 | 20534 ft | 457 kts | 19° |
| 2026-05-08 10:27 | 44.27978 | -0.87631 | 20874 ft | 459 kts | 19° |
| 2026-05-08 10:28 | 44.31009 | -0.86192 | 21203 ft | 462 kts | 19° |
| 2026-05-08 10:28 | 44.34064 | -0.84761 | 21528 ft | 464 kts | 18° |
| 2026-05-08 10:28 | 44.37138 | -0.83351 | 21847 ft | 466 kts | 18° |
| 2026-05-08 10:28 | 44.40234 | -0.81954 | 22170 ft | 468 kts | 18° |
| 2026-05-08 10:29 | 44.43346 | -0.80559 | 22484 ft | 470 kts | 18° |
| 2026-05-08 10:29 | 44.46470 | -0.79158 | 22791 ft | 472 kts | 18° |
| 2026-05-08 10:29 | 44.49571 | -0.77763 | 23065 ft | 475 kts | 18° |
| 2026-05-08 10:29 | 44.52715 | -0.76343 | 23363 ft | 477 kts | 17° |
| 2026-05-08 10:30 | 44.55878 | -0.74908 | 23633 ft | 478 kts | 17° |
| 2026-05-08 10:30 | 44.59043 | -0.73471 | 23870 ft | 479 kts | 17° |
| 2026-05-08 10:30 | 44.62218 | -0.72026 | 24092 ft | 480 kts | 17° |
| 2026-05-08 10:30 | 44.65406 | -0.70574 | 24324 ft | 482 kts | 17° |
| 2026-05-08 10:31 | 44.68595 | -0.69122 | 24540 ft | 483 kts | 17° |
| 2026-05-08 10:31 | 44.71799 | -0.67661 | 24747 ft | 484 kts | 17° |
| 2026-05-08 10:31 | 44.75004 | -0.66196 | 24946 ft | 485 kts | 17° |
| 2026-05-08 10:31 | 44.78216 | -0.64724 | 25110 ft | 486 kts | 17° |
| 2026-05-08 10:32 | 44.81449 | -0.63239 | 25279 ft | 487 kts | 17° |
| 2026-05-08 10:32 | 44.84683 | -0.61753 | 25427 ft | 488 kts | 17° |
| 2026-05-08 10:32 | 44.87914 | -0.60268 | 25577 ft | 489 kts | 17° |
| 2026-05-08 10:32 | 44.91154 | -0.58779 | 25708 ft | 490 kts | 17° |
| 2026-05-08 10:33 | 44.94401 | -0.57287 | 25837 ft | 491 kts | 17° |
| 2026-05-08 10:33 | 44.97649 | -0.55792 | 25959 ft | 491 kts | 17° |
| 2026-05-08 10:33 | 45.00900 | -0.54290 | 26083 ft | 492 kts | 17° |
| 2026-05-08 10:33 | 45.04152 | -0.52786 | 26207 ft | 492 kts | 17° |
| 2026-05-08 10:34 | 45.07364 | -0.51298 | 26331 ft | 492 kts | 17° |
| 2026-05-08 10:34 | 45.10611 | -0.49791 | 26455 ft | 491 kts | 17° |
| 2026-05-08 10:34 | 45.13860 | -0.48285 | 26580 ft | 491 kts | 17° |
| 2026-05-08 10:34 | 45.17108 | -0.46782 | 26709 ft | 491 kts | 17° |
| 2026-05-08 10:35 | 45.20358 | -0.45273 | 26834 ft | 491 kts | 17° |
| 2026-05-08 10:35 | 45.23603 | -0.43759 | 26960 ft | 491 kts | 17° |
| 2026-05-08 10:35 | 45.26849 | -0.42244 | 27088 ft | 490 kts | 17° |
| 2026-05-08 10:35 | 45.30087 | -0.40732 | 27212 ft | 490 kts | 17° |
| 2026-05-08 10:36 | 45.33323 | -0.39224 | 27345 ft | 490 kts | 16° |
| 2026-05-08 10:36 | 45.36566 | -0.37710 | 27475 ft | 490 kts | 17° |
| 2026-05-08 10:36 | 45.39800 | -0.36197 | 27601 ft | 489 kts | 16° |
| 2026-05-08 10:36 | 45.43035 | -0.34680 | 27751 ft | 489 kts | 16° |
| 2026-05-08 10:37 | 45.46268 | -0.33163 | 27872 ft | 489 kts | 16° |
| 2026-05-08 10:37 | 45.49503 | -0.31640 | 28011 ft | 489 kts | 16° |
| 2026-05-08 10:37 | 45.52729 | -0.30119 | 28146 ft | 489 kts | 16° |
| 2026-05-08 10:37 | 45.55956 | -0.28601 | 28282 ft | 488 kts | 16° |
| 2026-05-08 10:38 | 45.59183 | -0.27085 | 28428 ft | 488 kts | 16° |
| 2026-05-08 10:38 | 45.62403 | -0.25570 | 28561 ft | 487 kts | 16° |
| 2026-05-08 10:38 | 45.65624 | -0.24048 | 28695 ft | 487 kts | 16° |
| 2026-05-08 10:38 | 45.68776 | -0.22548 | 29311 ft | 465 kts | 16° |
| 2026-05-08 10:39 | 45.71811 | -0.21102 | 30085 ft | 457 kts | 15° |
| 2026-05-08 10:39 | 45.74805 | -0.19680 | 30252 ft | 461 kts | 15° |
| 2026-05-08 10:39 | 45.77901 | -0.18214 | 30439 ft | 463 kts | 15° |
| 2026-05-08 10:39 | 45.80967 | -0.16764 | 30661 ft | 465 kts | 15° |
| 2026-05-08 10:40 | 45.84003 | -0.15323 | 30874 ft | 466 kts | 15° |
| 2026-05-08 10:40 | 45.87082 | -0.13852 | 31137 ft | 466 kts | 15° |
| 2026-05-08 10:40 | 45.90155 | -0.12381 | 31432 ft | 465 kts | 15° |
| 2026-05-08 10:40 | 45.93221 | -0.10910 | 31711 ft | 465 kts | 15° |
| 2026-05-08 10:41 | 45.96297 | -0.09433 | 31984 ft | 464 kts | 15° |
| 2026-05-08 10:41 | 45.99358 | -0.07965 | 32314 ft | 462 kts | 15° |
| 2026-05-08 10:41 | 46.02401 | -0.06509 | 32640 ft | 461 kts | 15° |
| 2026-05-08 10:41 | 46.05444 | -0.05054 | 32945 ft | 459 kts | 15° |
| 2026-05-08 10:42 | 46.08475 | -0.03601 | 33242 ft | 459 kts | 15° |
| 2026-05-08 10:42 | 46.11505 | -0.02145 | 33529 ft | 458 kts | 15° |
| 2026-05-08 10:42 | 46.14524 | -0.00691 | 33827 ft | 457 kts | 14° |
| 2026-05-08 10:42 | 46.17532 | 0.00761 | 33977 ft | 453 kts | 14° |
| 2026-05-08 10:43 | 46.20470 | 0.02182 | 33972 ft | 452 kts | 14° |
| 2026-05-08 10:43 | 46.26503 | 0.05082 | 33971 ft | 461 kts | 14° |
| 2026-05-08 10:44 | 46.32646 | 0.08046 | 33971 ft | 467 kts | 14° |
| 2026-05-08 10:44 | 46.37774 | 0.10546 | 33983 ft | 468 kts | 14° |
| 2026-05-08 10:45 | 46.43939 | 0.13554 | 33994 ft | 467 kts | 14° |
| 2026-05-08 10:45 | 46.50101 | 0.16568 | 33999 ft | 467 kts | 14° |
| 2026-05-08 10:46 | 46.56267 | 0.19578 | 34004 ft | 467 kts | 14° |
| 2026-05-08 10:46 | 46.62431 | 0.22595 | 34019 ft | 467 kts | 14° |
| 2026-05-08 10:47 | 46.68583 | 0.25625 | 34016 ft | 467 kts | 14° |
| 2026-05-08 10:47 | 46.74736 | 0.28662 | 34009 ft | 467 kts | 14° |
| 2026-05-08 10:48 | 46.80891 | 0.31699 | 34001 ft | 466 kts | 14° |
| 2026-05-08 10:48 | 46.87060 | 0.34646 | 33999 ft | 465 kts | 12° |
| 2026-05-08 10:49 | 46.93266 | 0.37305 | 33982 ft | 465 kts | 11° |
| 2026-05-08 10:49 | 46.96393 | 0.38600 | 33092 ft | 469 kts | 11° |
| 2026-05-08 10:49 | 46.99544 | 0.39908 | 31952 ft | 471 kts | 12° |
| 2026-05-08 10:49 | 47.02686 | 0.41236 | 31089 ft | 470 kts | 12° |
| 2026-05-08 10:50 | 47.05816 | 0.42585 | 30499 ft | 470 kts | 12° |
| 2026-05-08 10:50 | 47.08957 | 0.43955 | 30094 ft | 471 kts | 12° |
| 2026-05-08 10:50 | 47.12104 | 0.45338 | 29943 ft | 472 kts | 13° |
| 2026-05-08 10:51 | 47.18405 | 0.48109 | 30011 ft | 473 kts | 12° |
| 2026-05-08 10:51 | 47.24703 | 0.50882 | 30011 ft | 472 kts | 12° |
| 2026-05-08 10:52 | 47.30987 | 0.53636 | 30020 ft | 471 kts | 12° |
| 2026-05-08 10:52 | 47.37281 | 0.56400 | 30026 ft | 472 kts | 12° |
| 2026-05-08 10:53 | 47.43550 | 0.59185 | 30024 ft | 470 kts | 12° |
| 2026-05-08 10:53 | 47.49775 | 0.61946 | 30029 ft | 471 kts | 12° |
| 2026-05-08 10:54 | 47.56071 | 0.64729 | 30025 ft | 472 kts | 12° |
| 2026-05-08 10:54 | 47.62373 | 0.67535 | 29539 ft | 472 kts | 12° |
| 2026-05-08 10:54 | 47.65511 | 0.68938 | 28479 ft | 467 kts | 12° |
| 2026-05-08 10:55 | 47.68593 | 0.70319 | 27844 ft | 457 kts | 12° |
| 2026-05-08 10:55 | 47.71615 | 0.71677 | 26904 ft | 454 kts | 12° |
| 2026-05-08 10:55 | 47.74640 | 0.73030 | 25957 ft | 453 kts | 12° |
| 2026-05-08 10:55 | 47.77652 | 0.74379 | 25150 ft | 450 kts | 12° |
| 2026-05-08 10:56 | 47.80591 | 0.75696 | 24422 ft | 446 kts | 12° |
| 2026-05-08 10:56 | 47.83545 | 0.77023 | 23716 ft | 442 kts | 12° |
| 2026-05-08 10:56 | 47.86516 | 0.78357 | 22910 ft | 438 kts | 12° |
| 2026-05-08 10:56 | 47.89385 | 0.79642 | 22124 ft | 435 kts | 12° |
| 2026-05-08 10:57 | 47.92276 | 0.80941 | 21386 ft | 432 kts | 13° |
| 2026-05-08 10:57 | 47.95142 | 0.82234 | 20672 ft | 430 kts | 13° |
| 2026-05-08 10:57 | 48.00850 | 0.84811 | 19569 ft | 428 kts | 14° |
| 2026-05-08 10:58 | 48.03712 | 0.86101 | 19262 ft | 429 kts | 14° |
| 2026-05-08 10:58 | 48.06565 | 0.87391 | 18945 ft | 429 kts | 14° |
| 2026-05-08 10:58 | 48.09414 | 0.88689 | 18622 ft | 428 kts | 15° |
| 2026-05-08 10:58 | 48.12253 | 0.89990 | 18302 ft | 427 kts | 15° |
| 2026-05-08 10:59 | 48.15085 | 0.91286 | 17959 ft | 425 kts | 15° |
| 2026-05-08 10:59 | 48.17844 | 0.92847 | 17653 ft | 425 kts | 26° |
| 2026-05-08 10:59 | 48.20265 | 0.95384 | 17387 ft | 425 kts | 38° |
| 2026-05-08 10:59 | 48.22552 | 0.98186 | 17139 ft | 424 kts | 38° |
| 2026-05-08 11:00 | 48.24821 | 1.00982 | 16874 ft | 422 kts | 38° |
| 2026-05-08 11:00 | 48.27083 | 1.03775 | 16615 ft | 420 kts | 38° |
| 2026-05-08 11:00 | 48.29334 | 1.06551 | 16357 ft | 418 kts | 38° |
| 2026-05-08 11:00 | 48.31575 | 1.09316 | 16101 ft | 416 kts | 38° |
| 2026-05-08 11:01 | 48.33812 | 1.12082 | 15845 ft | 415 kts | 38° |
| 2026-05-08 11:01 | 48.36032 | 1.14828 | 15590 ft | 413 kts | 38° |
| 2026-05-08 11:01 | 48.38245 | 1.17566 | 15335 ft | 412 kts | 38° |
| 2026-05-08 11:01 | 48.40455 | 1.20307 | 15098 ft | 410 kts | 38° |
| 2026-05-08 11:02 | 48.42647 | 1.23033 | 14863 ft | 409 kts | 38° |
| 2026-05-08 11:02 | 48.47011 | 1.28469 | 14372 ft | 405 kts | 38° |
| 2026-05-08 11:02 | 48.49182 | 1.31176 | 14134 ft | 404 kts | 39° |
| 2026-05-08 11:03 | 48.51336 | 1.33859 | 13892 ft | 397 kts | 39° |
| 2026-05-08 11:03 | 48.53436 | 1.36477 | 13626 ft | 385 kts | 39° |
| 2026-05-08 11:03 | 48.55442 | 1.38980 | 13351 ft | 362 kts | 39° |
| 2026-05-08 11:03 | 48.57332 | 1.41341 | 13095 ft | 347 kts | 39° |
| 2026-05-08 11:04 | 48.59176 | 1.43647 | 12682 ft | 339 kts | 39° |
| 2026-05-08 11:04 | 48.60983 | 1.45908 | 12414 ft | 337 kts | 39° |
| 2026-05-08 11:04 | 48.62780 | 1.48162 | 12152 ft | 334 kts | 39° |
| 2026-05-08 11:04 | 48.64546 | 1.50382 | 11883 ft | 323 kts | 40° |
| 2026-05-08 11:05 | 48.66225 | 1.52488 | 11635 ft | 305 kts | 40° |
| 2026-05-08 11:05 | 48.67818 | 1.54491 | 11387 ft | 295 kts | 40° |
| 2026-05-08 11:05 | 48.69391 | 1.56477 | 11124 ft | 295 kts | 40° |
| 2026-05-08 11:05 | 48.70957 | 1.58453 | 10723 ft | 291 kts | 40° |
| 2026-05-08 11:06 | 48.72501 | 1.60397 | 10324 ft | 287 kts | 40° |
| 2026-05-08 11:06 | 48.74023 | 1.62325 | 9947 ft | 285 kts | 42° |
| 2026-05-08 11:06 | 48.75253 | 1.64586 | 9767 ft | 281 kts | 56° |
| 2026-05-08 11:06 | 48.76335 | 1.67032 | 9678 ft | 280 kts | 56° |
| 2026-05-08 11:07 | 48.77422 | 1.69480 | 9610 ft | 281 kts | 56° |
| 2026-05-08 11:07 | 48.78515 | 1.71936 | 9474 ft | 280 kts | 56° |
| 2026-05-08 11:07 | 48.79603 | 1.74385 | 9341 ft | 280 kts | 56° |
| 2026-05-08 11:07 | 48.80690 | 1.76846 | 9210 ft | 282 kts | 56° |
| 2026-05-08 11:08 | 48.81782 | 1.79321 | 9082 ft | 282 kts | 56° |
| 2026-05-08 11:08 | 48.82869 | 1.81788 | 8946 ft | 282 kts | 56° |
| 2026-05-08 11:08 | 48.83957 | 1.84262 | 8823 ft | 281 kts | 56° |
| 2026-05-08 11:08 | 48.85037 | 1.86719 | 8688 ft | 280 kts | 56° |
| 2026-05-08 11:09 | 48.86097 | 1.89137 | 8560 ft | 269 kts | 56° |
| 2026-05-08 11:09 | 48.87113 | 1.91453 | 8428 ft | 258 kts | 56° |
| 2026-05-08 11:09 | 48.88090 | 1.93681 | 8299 ft | 252 kts | 56° |
| 2026-05-08 11:09 | 48.89056 | 1.95890 | 8162 ft | 251 kts | 56° |
| 2026-05-08 11:10 | 48.90017 | 1.98089 | 8047 ft | 249 kts | 56° |
| 2026-05-08 11:10 | 48.90977 | 2.00285 | 7825 ft | 249 kts | 56° |
| 2026-05-08 11:10 | 48.91931 | 2.02468 | 7515 ft | 247 kts | 56° |
| 2026-05-08 11:10 | 48.92876 | 2.04642 | 7190 ft | 246 kts | 56° |
| 2026-05-08 11:11 | 48.93829 | 2.06834 | 6853 ft | 244 kts | 56° |
| 2026-05-08 11:11 | 48.94750 | 2.08953 | 6542 ft | 243 kts | 56° |
| 2026-05-08 11:11 | 48.95681 | 2.11094 | 6197 ft | 242 kts | 56° |
| 2026-05-08 11:11 | 48.96570 | 2.13247 | 5912 ft | 238 kts | 65° |
| 2026-05-08 11:12 | 48.97016 | 2.15653 | 5638 ft | 237 kts | 84° |
| 2026-05-08 11:12 | 48.97156 | 2.18123 | 5337 ft | 234 kts | 84° |
| 2026-05-08 11:12 | 48.97295 | 2.20581 | 5022 ft | 233 kts | 85° |
| 2026-05-08 11:12 | 48.97432 | 2.22998 | 4707 ft | 225 kts | 85° |
| 2026-05-08 11:13 | 48.97563 | 2.25314 | 4402 ft | 215 kts | 84° |
| 2026-05-08 11:13 | 48.97689 | 2.27540 | 4121 ft | 207 kts | 84° |
| 2026-05-08 11:13 | 48.97809 | 2.29670 | 3846 ft | 198 kts | 85° |
| 2026-05-08 11:13 | 48.97923 | 2.31697 | 3623 ft | 187 kts | 84° |
| 2026-05-08 11:14 | 48.98032 | 2.33631 | 3354 ft | 181 kts | 85° |
| 2026-05-08 11:14 | 48.98138 | 2.35526 | 3107 ft | 179 kts | 84° |
| 2026-05-08 11:14 | 48.98243 | 2.37412 | 2855 ft | 178 kts | 84° |
| 2026-05-08 11:14 | 48.98348 | 2.39305 | 2614 ft | 178 kts | 84° |
| 2026-05-08 11:15 | 48.98447 | 2.41108 | 2370 ft | 164 kts | 85° |
| 2026-05-08 11:15 | 48.98537 | 2.42737 | 2190 ft | 145 kts | 84° |
| 2026-05-08 11:15 | 48.98618 | 2.44236 | 1968 ft | 140 kts | 85° |
| 2026-05-08 11:15 | 48.98681 | 2.45695 | 1777 ft | 137 kts | 86° |
| 2026-05-08 11:16 | 48.98764 | 2.47145 | 1556 ft | 136 kts | 83° |
| 2026-05-08 11:16 | 48.98860 | 2.48572 | 1388 ft | 137 kts | 86° |
| 2026-05-08 11:16 | 48.98925 | 2.50012 | 1251 ft | 135 kts | 85° |
| 2026-05-08 11:16 | 48.99010 | 2.51420 | 1081 ft | 134 kts | 84° |
| 2026-05-08 11:17 | 48.99092 | 2.52859 | 932 ft | 136 kts | 87° |
| 2026-05-08 11:17 | 48.99166 | 2.54299 | 706 ft | 137 kts | 86° |
| 2026-05-08 11:17 | 48.99249 | 2.55738 | 522 ft | 136 kts | 86° |
| 2026-05-08 11:17 | 48.99325 | 2.57146 | 366 ft | 126 kts | 86° |
| 2026-05-08 11:18 | 48.99385 | 2.58326 | 357 ft | 93 kts | 85° |
| 2026-05-08 11:18 | 48.99423 | 2.59017 | 351 ft | 32 kts | 83° |
| 2026-05-08 11:18 | 48.99480 | 2.59296 | 356 ft | 26 kts | 66° |
| 2026-05-08 11:18 | 48.99549 | 2.59523 | 357 ft | 19 kts | 63° |
| 2026-05-08 11:19 | 48.99618 | 2.59677 | 357 ft | 16 kts | 26° |
| 2026-05-08 11:19 | 48.99729 | 2.59683 | 354 ft | 16 kts | 354° |
| 2026-05-08 11:19 | 48.99845 | 2.59666 | 354 ft | 16 kts | 356° |
| 2026-05-08 11:19 | 48.99955 | 2.59656 | 356 ft | 16 kts | 356° |
| 2026-05-08 11:20 | 49.00062 | 2.59643 | 354 ft | 15 kts | 355° |
| 2026-05-08 11:20 | 49.00162 | 2.59631 | 361 ft | 14 kts | 355° |
| 2026-05-08 11:20 | 49.00251 | 2.59620 | 354 ft | 12 kts | 355° |
| 2026-05-08 11:20 | 49.00335 | 2.59608 | 354 ft | 13 kts | 355° |
| 2026-05-08 11:21 | 49.00431 | 2.59596 | 357 ft | 14 kts | 355° |
| 2026-05-08 11:21 | 49.00540 | 2.59583 | 360 ft | 16 kts | 355° |
| 2026-05-08 11:21 | 49.00661 | 2.59569 | 362 ft | 19 kts | 355° |
| 2026-05-08 11:21 | 49.00802 | 2.59552 | 357 ft | 21 kts | 356° |
| 2026-05-08 11:22 | 49.00935 | 2.59537 | 358 ft | 12 kts | 355° |
| 2026-05-08 11:22 | 49.00999 | 2.59482 | 358 ft | 10 kts | 291° |
| 2026-05-08 11:22 | 49.00999 | 2.59380 | 360 ft | 9 kts | 265° |
| 2026-05-08 11:22 | 49.00995 | 2.59290 | 358 ft | 8 kts | 265° |
| 2026-05-08 11:23 | 49.00990 | 2.59209 | 354 ft | 9 kts | 265° |
| 2026-05-08 11:23 | 49.00985 | 2.59111 | 354 ft | 9 kts | 263° |
| 2026-05-08 11:23 | 49.00960 | 2.58972 | 357 ft | 17 kts | 255° |
| 2026-05-08 11:23 | 49.00944 | 2.58799 | 354 ft | 16 kts | 265° |
| 2026-05-08 11:24 | 49.00935 | 2.58631 | 354 ft | 15 kts | 266° |
| 2026-05-08 11:24 | 49.00927 | 2.58461 | 358 ft | 18 kts | 265° |
| 2026-05-08 11:24 | 49.00916 | 2.58277 | 354 ft | 17 kts | 265° |
| 2026-05-08 11:24 | 49.00908 | 2.58104 | 358 ft | 15 kts | 266° |
| 2026-05-08 11:25 | 49.00901 | 2.57950 | 354 ft | 14 kts | 265° |
| 2026-05-08 11:25 | 49.00893 | 2.57813 | 361 ft | 13 kts | 265° |
| 2026-05-08 11:25 | 49.00885 | 2.57667 | 354 ft | 14 kts | 265° |
| 2026-05-08 11:25 | 49.00843 | 2.57567 | 354 ft | 9 kts | 190° |
| 2026-05-08 11:26 | 49.00795 | 2.57538 | 359 ft | 7 kts | 232° |
| 2026-05-08 11:26 | 49.00770 | 2.57489 | 354 ft | 5 kts | 214° |
| 2026-05-08 11:26 | 49.00740 | 2.57465 | 354 ft | 4 kts | 208° |
| 2026-05-08 11:26 | 49.00722 | 2.57450 | 355 ft | 2 kts | 208° |
| 2026-05-08 11:27 | 49.00715 | 2.57444 | 362 ft | 1 kts | 208° |
| 2026-05-08 11:27 | 49.00711 | 2.57441 | 362 ft | 1 kts | 208° |